Latest Conditions
At L.F.Wade Int. Airport
Recorded at 10:55 pm
Partly Cloudy
Temp.: 
27°C/81°F
Humidity: 
92%
Wind: 
S 12KT
or 14mph
Island Observations
Observations
Tuesday, September 23, 2014

Observations are in local time and taken at least once an hour, or upon the start and end of specified events such as showers and thunderstorms.

Time Sky / Weather Wind Speed/Gusts Temp. R.H. Pressure
     knots (mph)  °C (°F)  %  mb / "Hg
 22:55 Partly Cloudy  S 12/0 (14/0) 27(81) 92 1021 / 30.15
 21:55 Partly Cloudy  S 13/0 (15/0) 27(81) 91 1021 / 30.15
 20:55 Mostly Cloudy  S 12/0 (14/0) 27(80) 93 1020 / 30.13
 19:55 Mostly Cloudy  S 12/0 (14/0) 27(81) 92 1020 / 30.13
 18:55 Mostly Cloudy  S 12/0 (14/0) 27(81) 91 1020 / 30.12
 17:55 Mostly Cloudy  S 11/0 (13/0) 28(82) 88 1020 / 30.12
 16:55 Mostly Cloudy  SSW 10/0 (12/0) 28(82) 89 1020 / 30.12
 15:55 Mostly Cloudy  SSW 12/0 (14/0) 28(82) 88 1020 / 30.12
 14:55 Mostly Cloudy  S 11/0 (13/0) 28(82) 87 1020 / 30.12
 13:55 Overcast  SSW 12/0 (14/0) 28(82) 82 1020 / 30.13
 12:55 Mostly Cloudy  SSW 12/0 (14/0) 27(80) 91 1021 / 30.15
 11:55 Mostly Cloudy  SSW 12/0 (14/0) 26(78) 89 1021 / 30.15
 10:55 Mostly Cloudy Showers SSW 11/0 (13/0) 26(78) 94 1021 / 30.16
 10:30 Mostly Cloudy Showers SW 14/0 (16/0) 25(77) 93 1021 / 30.15
 09:55 Mostly Cloudy Thunderstorm SSW 14/0 (16/0) 25(77) 93 1021 / 30.15
 09:40 Mostly Cloudy Thunderstorm SSW 17/0 (20/0) 25(77) 98 1021 / 30.15
 09:31 Mostly Cloudy Showers SW 17/0 (20/0) 25(77) 98 1021 / 30.15
 08:55 Mostly Cloudy Thunderstorm SW 16/0 (18/0) 25(77) 98 1020 / 30.12
 08:19 Mostly Cloudy Showers SW 20/31 (23/36) 26(80) 97 1020 / 30.12
 08:09 Mostly Cloudy Showers WSW 18/0 (21/0) 26(80) 97 1020 / 30.11
 07:55 Mostly Cloudy Showers SW 12/0 (14/0) 26(80) 97 1020 / 30.11
 07:27 Mostly Cloudy Showers S 12/32 (14/37) 27(81) 89 1020 / 30.11
 07:18 Mostly Cloudy Showers S 24/0 (28/0) 27(81) 89 1019 / 30.10
 06:55 Mostly Cloudy Showers SSW 16/0 (18/0) 27(81) 89 1019 / 30.09
Observations from our AWOS sites are available here (password and username are both 'guest').